Time;durP1;ratioP1;P1;durP2;ratioP2;P2;SDS_P1;SDS_P2;PMS_P1;PMS_P2;Temp;Humidity;BMP_temperature;BMP_pressure;BME280_temperature;BME280_humidity;BME280_pressure;Samples;Min_cycle;Max_cycle;Signal;HPM_P1;HPM_P2
2022/03/19 00:01:53;;;;;;;29.57;8.63;;;;;;;;;;5061430;28;20048;-67
2022/03/19 00:04:18;;;;;;;23.33;7.90;;;;;;;;;;5064000;28;20024;-67
2022/03/19 00:06:45;;;;;;;33.57;9.17;;;;;;;;;;5065108;28;20693;-67
2022/03/19 00:09:10;;;;;;;25.80;7.83;;;;;;;;;;5063467;28;20025;-67
2022/03/19 00:11:40;;;;;;;27.17;8.63;;;;;;;;;;5062930;28;20137;-67
2022/03/19 00:14:06;;;;;;;33.83;9.40;;;;;;;;;;5063239;28;20032;-67
2022/03/19 00:16:31;;;;;;;29.30;8.30;;;;;;;;;;5062388;28;20813;-67
2022/03/19 00:18:56;;;;;;;25.97;8.03;;;;;;;;;;5063082;28;20484;-67
2022/03/19 00:21:22;;;;;;;23.47;8.10;;;;;;;;;;5063090;28;20059;-67
2022/03/19 00:23:47;;;;;;;32.53;8.40;;;;;;;;;;5064493;28;20029;-67
2022/03/19 00:26:13;;;;;;;25.93;8.90;;;;;;;;;;5064516;28;20024;-67
2022/03/19 00:28:40;;;;;;;24.83;8.03;;;;;;;;;;5064587;28;20020;-67
2022/03/19 00:31:05;;;;;;;28.87;8.83;;;;;;;;;;5063997;28;20111;-67
2022/03/19 00:33:30;;;;;;;26.97;8.17;;;;;;;;;;5064808;28;20100;-67
2022/03/19 00:35:55;;;;;;;24.13;8.23;;;;;;;;;;5075203;28;20464;-67
2022/03/19 00:38:21;;;;;;;30.10;10.17;;;;;;;;;;5067677;28;20456;-67
2022/03/19 00:40:47;;;;;;;28.23;8.93;;;;;;;;;;5064545;28;20079;-67
2022/03/19 00:43:12;;;;;;;25.87;8.90;;;;;;;;;;5063924;28;20020;-67
2022/03/19 00:45:38;;;;;;;27.40;8.60;;;;;;;;;;5064055;28;20059;-67
2022/03/19 00:48:04;;;;;;;26.67;8.90;;;;;;;;;;5066955;28;20235;-67
2022/03/19 00:50:29;;;;;;;24.07;7.83;;;;;;;;;;5063372;28;20024;-67
2022/03/19 00:52:54;;;;;;;22.70;8.40;;;;;;;;;;5066822;28;20020;-67
2022/03/19 00:55:20;;;;;;;26.67;8.37;;;;;;;;;;5070307;28;20074;-67
2022/03/19 00:57:46;;;;;;;28.10;8.20;;;;;;;;;;5064257;28;20042;-67
2022/03/19 01:00:11;;;;;;;23.87;8.70;;;;;;;;;;5063905;28;20039;-67
2022/03/19 01:02:38;;;;;;;29.23;8.83;;;;;;;;;;5066327;28;20051;-67
2022/03/19 01:05:04;;;;;;;26.87;8.90;;;;;;;;;;5064058;28;20048;-67
2022/03/19 01:07:29;;;;;;;25.73;9.07;;;;;;;;;;5064475;28;20441;-67
2022/03/19 01:09:55;;;;;;;24.90;8.40;;;;;;;;;;5063987;28;20667;-67
2022/03/19 01:12:20;;;;;;;24.43;8.00;;;;;;;;;;5062802;28;20029;-67
2022/03/19 01:14:45;;;;;;;26.43;7.50;;;;;;;;;;5062423;28;20013;-67
2022/03/19 01:17:11;;;;;;;26.87;8.37;;;;;;;;;;5064173;28;20047;-67
2022/03/19 01:19:57;;;;;;;22.67;7.60;;;;;;;;;;5063667;28;20109;-67
2022/03/19 01:22:22;;;;;;;24.37;7.93;;;;;;;;;;5063335;28;20017;-67
2022/03/19 01:24:48;;;;;;;20.47;8.13;;;;;;;;;;5063419;28;20035;-67
2022/03/19 01:27:13;;;;;;;19.43;7.93;;;;;;;;;;5063528;28;20020;-67
2022/03/19 01:29:38;;;;;;;25.33;7.97;;;;;;;;;;5063767;28;20038;-67
2022/03/19 01:32:04;;;;;;;22.67;7.80;;;;;;;;;;5061794;28;20032;-67
2022/03/19 01:34:29;;;;;;;21.57;7.33;;;;;;;;;;5062411;28;20028;-67
2022/03/19 01:36:55;;;;;;;23.57;8.10;;;;;;;;;;5060257;28;20028;-67
2022/03/19 01:39:20;;;;;;;26.57;7.77;;;;;;;;;;5058370;28;20064;-67
2022/03/19 01:41:45;;;;;;;22.37;7.50;;;;;;;;;;5058570;28;20040;-67
2022/03/19 01:44:18;;;;;;;26.97;7.40;;;;;;;;;;5058755;28;20056;-67
2022/03/19 01:47:03;;;;;;;23.37;7.03;;;;;;;;;;5058172;28;20016;-67
2022/03/19 01:49:29;;;;;;;25.47;8.57;;;;;;;;;;5058372;28;20697;-67
2022/03/19 01:51:54;;;;;;;25.33;7.20;;;;;;;;;;5060434;28;20025;-67
2022/03/19 01:54:26;;;;;;;22.97;6.63;;;;;;;;;;5058815;28;20058;-67
2022/03/19 01:56:52;;;;;;;;;;;;;;;;;;5058232;28;20017;-67
2022/03/19 01:59:17;;;;;;;17.48;6.85;;;;;;;;;;5058919;28;20106;-67
2022/03/19 02:01:43;;;;;;;23.67;7.30;;;;;;;;;;5060049;28;20555;-67
2022/03/19 02:04:08;;;;;;;26.00;6.87;;;;;;;;;;5057248;28;20069;-67
2022/03/19 02:06:35;;;;;;;24.50;7.27;;;;;;;;;;5056940;28;20021;-67
2022/03/19 02:09:00;;;;;;;26.47;6.83;;;;;;;;;;5057729;28;20479;-67
2022/03/19 02:11:26;;;;;;;24.10;7.43;;;;;;;;;;5059084;28;20115;-67
2022/03/19 02:13:51;;;;;;;18.23;6.53;;;;;;;;;;5058341;28;20488;-67
2022/03/19 02:16:17;;;;;;;22.03;6.60;;;;;;;;;;5057479;28;20027;-67
2022/03/19 02:18:42;;;;;;;26.37;6.77;;;;;;;;;;5059490;28;20035;-67
2022/03/19 02:21:07;;;;;;;19.30;6.80;;;;;;;;;;5061714;28;20396;-67
2022/03/19 02:26:16;;;;;;;17.97;6.77;;;;;;;;;;5062112;28;20099;-67
2022/03/19 02:28:42;;;;;;;22.60;7.07;;;;;;;;;;5062062;28;20099;-67
2022/03/19 02:31:07;;;;;;;24.43;7.03;;;;;;;;;;5063012;28;20020;-67
2022/03/19 02:33:32;;;;;;;23.57;7.07;;;;;;;;;;5082780;28;20059;-67
2022/03/19 02:35:57;;;;;;;21.13;6.90;;;;;;;;;;5063305;28;20476;-67
2022/03/19 02:38:23;;;;;;;18.70;6.97;;;;;;;;;;5062145;28;20051;-67
2022/03/19 02:40:48;;;;;;;23.13;7.03;;;;;;;;;;5062253;28;20029;-67
2022/03/19 02:43:13;;;;;;;20.97;7.03;;;;;;;;;;5062382;28;20705;-67
2022/03/19 02:45:39;;;;;;;20.30;7.20;;;;;;;;;;5061912;28;20682;-67
2022/03/19 02:48:05;;;;;;;22.43;7.23;;;;;;;;;;5063351;28;20028;-67
2022/03/19 02:50:36;;;;;;;24.97;7.57;;;;;;;;;;5061142;28;20100;-67
2022/03/19 02:53:06;;;;;;;22.00;7.50;;;;;;;;;;5061070;28;20031;-67
2022/03/19 02:55:32;;;;;;;20.83;7.30;;;;;;;;;;5057844;28;20025;-67
2022/03/19 02:57:57;;;;;;;26.03;7.53;;;;;;;;;;5061186;28;20021;-67
2022/03/19 03:00:23;;;;;;;15.07;6.40;;;;;;;;;;5061834;28;20031;-67
2022/03/19 03:02:48;;;;;;;24.87;7.47;;;;;;;;;;5060697;28;20135;-67
2022/03/19 03:05:13;;;;;;;22.27;6.67;;;;;;;;;;5066733;28;20028;-67
2022/03/19 03:07:39;;;;;;;26.73;6.67;;;;;;;;;;5061175;28;20078;-67
2022/03/19 03:10:04;;;;;;;22.60;6.87;;;;;;;;;;5060313;28;20035;-67
2022/03/19 03:12:30;;;;;;;23.10;6.90;;;;;;;;;;5059724;28;20116;-67
2022/03/19 03:14:55;;;;;;;19.37;6.80;;;;;;;;;;5057208;28;20032;-67
2022/03/19 03:17:21;;;;;;;24.80;6.73;;;;;;;;;;5056826;28;20039;-67
2022/03/19 03:19:46;;;;;;;30.50;7.83;;;;;;;;;;5061033;28;20028;-67
2022/03/19 03:22:11;;;;;;;18.93;6.50;;;;;;;;;;5058590;28;20483;-69
2022/03/19 03:24:36;;;;;;;23.87;6.57;;;;;;;;;;5057208;28;20812;-69
2022/03/19 03:27:02;;;;;;;22.53;6.33;;;;;;;;;;5057482;28;20056;-69
2022/03/19 03:29:27;;;;;;;23.80;6.47;;;;;;;;;;5055825;28;20500;-69
2022/03/19 03:31:52;;;;;;;23.23;6.57;;;;;;;;;;5056410;28;20028;-69
2022/03/19 03:34:17;;;;;;;24.93;6.47;;;;;;;;;;5055758;28;20060;-69
2022/03/19 03:36:43;;;;;;;23.67;6.27;;;;;;;;;;5054950;28;20304;-69
2022/03/19 03:39:08;;;;;;;20.53;6.13;;;;;;;;;;5056066;28;20036;-69
2022/03/19 03:41:33;;;;;;;19.30;5.70;;;;;;;;;;5058659;28;20067;-69
2022/03/19 03:43:58;;;;;;;21.17;5.70;;;;;;;;;;5057380;28;20032;-69
2022/03/19 03:46:24;;;;;;;20.77;5.80;;;;;;;;;;5061547;28;20020;-69
2022/03/19 03:48:49;;;;;;;22.00;5.17;;;;;;;;;;5060098;28;20176;-69
2022/03/19 03:51:14;;;;;;;20.07;5.20;;;;;;;;;;5060238;28;20036;-69
2022/03/19 03:53:40;;;;;;;18.67;5.77;;;;;;;;;;5056022;28;20032;-69
2022/03/19 03:56:07;;;;;;;25.73;5.50;;;;;;;;;;5060850;28;20048;-69
2022/03/19 03:58:32;;;;;;;27.70;5.90;;;;;;;;;;5060023;28;20515;-69
2022/03/19 04:00:57;;;;;;;16.97;5.53;;;;;;;;;;5060152;28;20051;-69
2022/03/19 04:03:23;;;;;;;22.07;5.20;;;;;;;;;;5060628;28;20439;-69
2022/03/19 04:05:49;;;;;;;18.30;4.77;;;;;;;;;;5061204;28;20735;-69
2022/03/19 04:08:14;;;;;;;22.70;5.30;;;;;;;;;;5059791;28;20052;-69
2022/03/19 04:10:42;;;;;;;15.80;4.87;;;;;;;;;;5060820;28;20032;-69
2022/03/19 04:13:08;;;;;;;20.37;5.33;;;;;;;;;;5061306;28;20025;-69
2022/03/19 04:15:33;;;;;;;21.67;5.00;;;;;;;;;;5060968;28;20438;-69
2022/03/19 04:17:59;;;;;;;19.00;5.10;;;;;;;;;;5061294;28;20094;-69
2022/03/19 04:20:25;;;;;;;22.70;5.47;;;;;;;;;;5060134;28;20054;-70
2022/03/19 04:22:50;;;;;;;20.13;5.53;;;;;;;;;;5060357;28;20151;-68
2022/03/19 04:25:18;;;;;;;16.00;4.87;;;;;;;;;;5071628;28;20149;-70
2022/03/19 04:27:44;;;;;;;17.50;4.80;;;;;;;;;;5073572;28;20512;-68
2022/03/19 04:30:14;;;;;;;15.63;4.63;;;;;;;;;;5059947;28;20027;-68
2022/03/19 04:32:42;;;;;;;18.30;4.50;;;;;;;;;;5060751;28;20033;-68
2022/03/19 04:37:59;;;;;;;17.03;4.53;;;;;;;;;;5061876;28;20075;-68
2022/03/19 04:40:25;;;;;;;19.70;4.80;;;;;;;;;;5066356;28;20040;-68
2022/03/19 04:42:50;;;;;;;16.87;4.97;;;;;;;;;;5060264;28;20658;-68
2022/03/19 04:45:15;;;;;;;16.67;4.30;;;;;;;;;;5056734;28;20609;-68
2022/03/19 04:47:41;;;;;;;21.73;4.83;;;;;;;;;;5060613;28;20024;-68
2022/03/19 04:50:06;;;;;;;21.13;5.00;;;;;;;;;;5062407;28;20025;-68
2022/03/19 04:52:32;;;;;;;16.47;4.83;;;;;;;;;;5063334;28;20105;-68
2022/03/19 04:55:00;;;;;;;20.80;5.40;;;;;;;;;;5064033;28;20388;-69
2022/03/19 04:57:26;;;;;;;18.93;4.77;;;;;;;;;;5063886;28;20024;-68
2022/03/19 04:59:51;;;;;;;20.73;4.90;;;;;;;;;;5063223;28;20722;-69
2022/03/19 05:02:16;;;;;;;15.37;5.20;;;;;;;;;;5063453;28;20048;-69
2022/03/19 05:04:42;;;;;;;20.53;5.00;;;;;;;;;;5063428;28;20116;-68
2022/03/19 05:07:07;;;;;;;20.20;5.43;;;;;;;;;;5063804;28;20086;-68
2022/03/19 05:12:36;;;;;;;19.13;5.50;;;;;;;;;;5064726;28;20028;-68
2022/03/19 05:15:01;;;;;;;20.80;4.87;;;;;;;;;;5070498;28;20666;-68
2022/03/19 05:17:27;;;;;;;16.60;5.07;;;;;;;;;;5063552;28;20020;-68
2022/03/19 05:19:52;;;;;;;23.13;6.63;;;;;;;;;;5063297;28;20427;-68
2022/03/19 05:22:17;;;;;;;28.37;5.60;;;;;;;;;;5062557;28;20035;-68
2022/03/19 05:24:42;;;;;;;23.83;6.20;;;;;;;;;;5063091;28;20027;-68
2022/03/19 05:27:08;;;;;;;22.87;5.67;;;;;;;;;;5063047;28;20060;-68
2022/03/19 05:29:33;;;;;;;20.33;5.70;;;;;;;;;;5062529;28;20908;-68
2022/03/19 05:31:59;;;;;;;17.83;4.93;;;;;;;;;;5062767;28;20028;-68
2022/03/19 05:34:30;;;;;;;21.63;5.70;;;;;;;;;;5062043;28;20029;-69
2022/03/19 05:36:55;;;;;;;16.80;4.25;;;;;;;;;;5062298;28;20041;-68
2022/03/19 05:39:21;;;;;;;20.53;5.97;;;;;;;;;;5063017;28;20092;-69
2022/03/19 05:41:46;;;;;;;19.10;5.57;;;;;;;;;;5062236;28;20028;-70
2022/03/19 05:44:11;;;;;;;29.27;6.70;;;;;;;;;;5062890;28;20085;-68
2022/03/19 05:46:36;;;;;;;22.73;6.37;;;;;;;;;;5062625;28;20020;-69
2022/03/19 05:49:02;;;;;;;21.70;5.30;;;;;;;;;;5044641;28;20016;-70
2022/03/19 05:51:27;;;;;;;23.93;6.60;;;;;;;;;;5062563;28;20031;-68
2022/03/19 05:53:53;;;;;;;18.13;5.53;;;;;;;;;;5062445;28;20492;-69
2022/03/19 05:56:18;;;;;;;21.57;6.67;;;;;;;;;;5064200;28;20481;-69
2022/03/19 05:58:43;;;;;;;24.00;6.60;;;;;;;;;;5065075;28;20063;-69
2022/03/19 06:01:09;;;;;;;19.33;6.67;;;;;;;;;;5067202;28;20059;-69
2022/03/19 06:03:34;;;;;;;21.30;6.43;;;;;;;;;;5061321;28;20028;-69
2022/03/19 06:05:59;;;;;;;33.67;6.90;;;;;;;;;;5062184;28;20017;-69
2022/03/19 06:08:24;;;;;;;29.83;7.70;;;;;;;;;;5062391;28;20025;-69
2022/03/19 06:10:50;;;;;;;25.37;7.30;;;;;;;;;;5062522;28;20080;-69
2022/03/19 06:13:15;;;;;;;25.00;6.43;;;;;;;;;;5061708;28;20575;-69
2022/03/19 06:15:40;;;;;;;21.50;4.87;;;;;;;;;;5061953;28;20502;-69
2022/03/19 06:18:06;;;;;;;19.87;6.10;;;;;;;;;;5061633;28;20020;-69
2022/03/19 06:20:31;;;;;;;21.40;6.63;;;;;;;;;;5061556;28;20056;-69
2022/03/19 06:22:57;;;;;;;29.63;6.90;;;;;;;;;;5061629;28;20032;-69
2022/03/19 06:25:22;;;;;;;23.27;6.30;;;;;;;;;;5069665;28;20027;-69
2022/03/19 06:27:47;;;;;;;22.37;6.27;;;;;;;;;;5062562;28;20021;-69
2022/03/19 06:30:13;;;;;;;28.90;5.73;;;;;;;;;;5061477;28;20033;-70
2022/03/19 06:32:41;;;;;;;24.13;5.20;;;;;;;;;;5061603;28;20039;-70
2022/03/19 06:35:07;;;;;;;20.03;5.17;;;;;;;;;;5061339;28;20028;-70
2022/03/19 06:37:33;;;;;;;19.50;5.03;;;;;;;;;;5060730;28;20092;-70
2022/03/19 06:40:06;;;;;;;19.13;5.40;;;;;;;;;;5071240;28;20071;-70
2022/03/19 06:42:31;;;;;;;24.20;5.80;;;;;;;;;;5060916;28;20485;-70
2022/03/19 06:44:56;;;;;;;19.03;5.67;;;;;;;;;;5061133;28;20024;-70
2022/03/19 06:47:22;;;;;;;18.83;4.80;;;;;;;;;;5061616;28;20050;-70
2022/03/19 06:49:47;;;;;;;20.07;4.77;;;;;;;;;;5060153;28;20085;-70
2022/03/19 06:52:12;;;;;;;19.73;4.97;;;;;;;;;;5061579;28;20058;-70
2022/03/19 06:54:37;;;;;;;15.33;4.03;;;;;;;;;;5061190;28;20036;-70
2022/03/19 06:57:03;;;;;;;16.30;4.77;;;;;;;;;;5061206;28;20028;-70
2022/03/19 06:59:28;;;;;;;20.67;4.83;;;;;;;;;;5061459;28;20033;-70
2022/03/19 07:01:53;;;;;;;15.97;4.30;;;;;;;;;;5060157;28;20044;-70
2022/03/19 07:04:19;;;;;;;14.40;4.40;;;;;;;;;;5060392;28;20103;-70
2022/03/19 07:06:44;;;;;;;12.73;4.40;;;;;;;;;;5060857;28;20036;-70
2022/03/19 07:09:09;;;;;;;18.97;5.00;;;;;;;;;;5060411;28;20050;-70
2022/03/19 07:11:37;;;;;;;16.33;3.87;;;;;;;;;;5059355;28;20082;-70
2022/03/19 07:14:05;;;;;;;13.40;3.70;;;;;;;;;;5060067;28;20135;-70
2022/03/19 07:16:30;;;;;;;11.87;3.37;;;;;;;;;;5061141;28;20050;-70
2022/03/19 07:18:56;;;;;;;16.40;5.17;;;;;;;;;;5066982;28;20529;-70
2022/03/19 07:21:22;;;;;;;13.27;4.40;;;;;;;;;;5061194;28;20127;-70
2022/03/19 07:23:47;;;;;;;12.53;3.73;;;;;;;;;;5060078;28;20024;-70
2022/03/19 07:26:12;;;;;;;12.80;3.60;;;;;;;;;;5060419;28;20098;-70
2022/03/19 07:28:38;;;;;;;15.97;4.27;;;;;;;;;;5062184;28;20051;-70
2022/03/19 07:31:03;;;;;;;14.50;3.87;;;;;;;;;;5060634;28;20028;-70
2022/03/19 07:33:33;;;;;;;14.03;4.00;;;;;;;;;;5060281;28;20028;-70
2022/03/19 07:35:59;;;;;;;16.20;4.13;;;;;;;;;;5060380;28;20452;-70
2022/03/19 07:38:24;;;;;;;14.33;4.13;;;;;;;;;;5060972;28;20027;-70
2022/03/19 07:43:33;;;;;;;16.30;4.23;;;;;;;;;;5059595;28;20032;-70
2022/03/19 07:45:58;;;;;;;17.10;4.30;;;;;;;;;;5060418;28;20654;-70
2022/03/19 07:48:24;;;;;;;14.70;4.00;;;;;;;;;;5060753;28;20027;-70
2022/03/19 07:50:49;;;;;;;11.37;3.77;;;;;;;;;;5060503;28;20024;-70
2022/03/19 07:53:14;;;;;;;14.50;3.47;;;;;;;;;;5061187;28;20126;-70
2022/03/19 07:55:39;;;;;;;12.50;3.60;;;;;;;;;;5059436;28;20047;-70
2022/03/19 07:58:05;;;;;;;16.13;4.07;;;;;;;;;;5060406;28;20027;-70
2022/03/19 08:00:31;;;;;;;18.47;4.07;;;;;;;;;;5059550;28;20044;-70
2022/03/19 08:02:56;;;;;;;20.73;4.30;;;;;;;;;;5059855;28;20228;-70
2022/03/19 08:05:21;;;;;;;14.33;4.10;;;;;;;;;;5059495;28;20584;-70
2022/03/19 08:07:47;;;;;;;15.93;4.10;;;;;;;;;;5059945;28;20583;-70
2022/03/19 08:10:13;;;;;;;13.13;3.53;;;;;;;;;;5060618;28;20114;-70
2022/03/19 08:12:40;;;;;;;15.93;3.83;;;;;;;;;;5060401;28;20035;-70
2022/03/19 08:15:06;;;;;;;12.30;3.90;;;;;;;;;;5060847;28;20192;-70
2022/03/19 08:17:32;;;;;;;15.83;3.77;;;;;;;;;;5061207;28;20749;-70
2022/03/19 08:19:58;;;;;;;15.33;3.70;;;;;;;;;;5060855;28;20029;-70
2022/03/19 08:22:23;;;;;;;15.43;3.23;;;;;;;;;;5061357;28;20028;-70
2022/03/19 08:24:49;;;;;;;16.08;3.75;;;;;;;;;;5065154;28;20024;-70
2022/03/19 08:27:14;;;;;;;13.27;2.80;;;;;;;;;;5064320;28;20024;-70
2022/03/19 08:29:39;;;;;;;17.63;3.00;;;;;;;;;;5063977;28;20021;-70
2022/03/19 08:32:05;;;;;;;12.45;2.85;;;;;;;;;;5065019;28;20032;-70
2022/03/19 08:34:30;;;;;;;14.97;3.77;;;;;;;;;;5079821;28;20036;-71
2022/03/19 08:36:56;;;;;;;12.77;3.10;;;;;;;;;;5066283;28;20033;-70
2022/03/19 08:42:05;;;;;;;7.10;2.00;;;;;;;;;;5063780;28;20035;-70
2022/03/19 08:44:30;;;;;;;11.83;2.77;;;;;;;;;;5063418;28;20032;-70
2022/03/19 08:46:55;;;;;;;11.27;2.40;;;;;;;;;;5063672;28;20035;-70
2022/03/19 08:49:21;;;;;;;6.78;2.10;;;;;;;;;;5063802;28;20646;-71
2022/03/19 08:51:46;;;;;;;10.85;2.80;;;;;;;;;;5063680;28;20041;-70
2022/03/19 08:54:14;;;;;;;7.65;2.10;;;;;;;;;;5063377;28;20461;-70
2022/03/19 08:56:39;;;;;;;11.25;2.30;;;;;;;;;;5067927;28;20177;-70
2022/03/19 08:59:05;;;;;;;11.20;2.35;;;;;;;;;;5080914;28;20213;-70
2022/03/19 09:01:30;;;;;;;8.90;1.85;;;;;;;;;;5066173;28;20056;-70
2022/03/19 09:03:55;;;;;;;7.50;2.10;;;;;;;;;;5061755;28;20159;-70
2022/03/19 09:06:21;;;;;;;7.50;1.80;;;;;;;;;;5066776;28;20102;-70
2022/03/19 09:08:47;;;;;;;8.77;2.15;;;;;;;;;;5069180;28;20039;-70
2022/03/19 09:11:12;;;;;;;6.07;1.73;;;;;;;;;;5064705;28;20202;-70
2022/03/19 09:13:38;;;;;;;7.53;2.13;;;;;;;;;;5064819;28;20070;-71
2022/03/19 09:16:04;;;;;;;7.65;2.05;;;;;;;;;;5065337;28;20020;-71
2022/03/19 09:18:29;;;;;;;7.45;1.50;;;;;;;;;;5064802;28;20031;-70
2022/03/19 09:20:54;;;;;;;9.75;2.10;;;;;;;;;;5062628;28;20043;-71
2022/03/19 09:23:20;;;;;;;10.55;2.50;;;;;;;;;;5062822;28;20154;-71
2022/03/19 09:25:45;;;;;;;7.28;2.03;;;;;;;;;;5063035;28;20039;-71
2022/03/19 09:28:10;;;;;;;9.30;2.03;;;;;;;;;;5062770;28;20039;-71
2022/03/19 09:30:36;;;;;;;6.90;1.90;;;;;;;;;;5061283;28;20512;-70
2022/03/19 09:33:01;;;;;;;13.00;2.05;;;;;;;;;;5062868;28;20096;-70
2022/03/19 09:35:27;;;;;;;6.70;2.33;;;;;;;;;;5061710;28;20022;-70
2022/03/19 09:37:52;;;;;;;7.35;2.10;;;;;;;;;;5062730;28;20100;-70
2022/03/19 09:40:18;;;;;;;7.22;1.58;;;;;;;;;;5061320;28;20017;-70
2022/03/19 09:42:48;;;;;;;6.07;1.70;;;;;;;;;;5062197;28;20129;-70
2022/03/19 09:45:13;;;;;;;8.90;1.90;;;;;;;;;;5061345;28;20023;-70
2022/03/19 09:47:38;;;;;;;8.48;1.95;;;;;;;;;;5062618;28;20021;-70
2022/03/19 09:50:04;;;;;;;9.05;2.22;;;;;;;;;;5062143;28;20078;-70
2022/03/19 09:52:33;;;;;;;5.15;1.70;;;;;;;;;;5062798;28;20071;-70
2022/03/19 09:55:02;;;;;;;6.30;1.80;;;;;;;;;;5062063;28;20082;-70
2022/03/19 09:57:27;;;;;;;9.07;2.10;;;;;;;;;;5064292;28;20046;-70
2022/03/19 09:59:52;;;;;;;11.93;2.53;;;;;;;;;;5071155;28;20484;-70
2022/03/19 10:02:18;;;;;;;9.30;2.17;;;;;;;;;;5061205;28;20101;-70
2022/03/19 10:04:43;;;;;;;9.50;2.00;;;;;;;;;;5062175;28;20024;-70
2022/03/19 10:09:54;;;;;;;9.97;2.10;;;;;;;;;;5061452;28;20607;-70
2022/03/19 10:12:21;;;;;;;8.53;2.27;;;;;;;;;;5062662;28;20024;-70
2022/03/19 10:14:56;;;;;;;10.60;1.93;;;;;;;;;;5061911;28;20079;-70
2022/03/19 10:17:39;;;;;;;9.53;2.50;;;;;;;;;;5061297;28;20031;-70
2022/03/19 10:20:09;;;;;;;7.00;1.93;;;;;;;;;;5061722;28;20036;-70
2022/03/19 10:22:38;;;;;;;7.17;1.90;;;;;;;;;;5061722;28;20116;-70
2022/03/19 10:25:05;;;;;;;9.00;2.67;;;;;;;;;;5061477;28;20108;-70
2022/03/19 10:27:31;;;;;;;12.43;2.60;;;;;;;;;;5061847;28;20455;-70
2022/03/19 10:30:07;;;;;;;12.80;3.03;;;;;;;;;;5061287;28;20416;-70
2022/03/19 10:32:33;;;;;;;11.57;3.23;;;;;;;;;;5061716;28;20028;-70
2022/03/19 10:34:58;;;;;;;8.00;2.23;;;;;;;;;;5064212;28;20511;-70
2022/03/19 10:37:53;;;;;;;10.50;2.17;;;;;;;;;;5073782;28;20461;-70
2022/03/19 10:40:18;;;;;;;7.43;1.57;;;;;;;;;;4982379;28;20045;-70
2022/03/19 10:42:43;;;;;;;7.63;2.33;;;;;;;;;;4988690;28;20038;-70
2022/03/19 10:45:10;;;;;;;7.70;1.70;;;;;;;;;;4979504;28;20089;-70
2022/03/19 10:47:41;;;;;;;12.80;2.60;;;;;;;;;;4978540;28;20030;-70
2022/03/19 10:50:06;;;;;;;6.10;2.03;;;;;;;;;;4978895;28;20042;-70
2022/03/19 10:52:33;;;;;;;10.20;2.07;;;;;;;;;;4978020;28;20082;-70
2022/03/19 10:55:03;;;;;;;8.27;2.70;;;;;;;;;;4978733;28;20030;-70
2022/03/19 10:57:28;;;;;;;8.30;2.10;;;;;;;;;;4979176;28;20030;-70
2022/03/19 10:59:54;;;;;;;10.67;2.90;;;;;;;;;;4978790;28;20096;-70
2022/03/19 11:02:19;;;;;;;8.67;2.70;;;;;;;;;;4977760;28;20631;-70
2022/03/19 11:04:46;;;;;;;11.93;2.57;;;;;;;;;;4978587;28;20454;-70
2022/03/19 11:07:13;;;;;;;9.60;2.47;;;;;;;;;;4979296;28;20058;-70
2022/03/19 11:09:38;;;;;;;7.30;1.90;;;;;;;;;;4979352;28;20519;-70
2022/03/19 11:12:07;;;;;;;11.03;2.40;;;;;;;;;;4978898;28;20052;-70
2022/03/19 11:14:35;;;;;;;10.30;2.10;;;;;;;;;;4986531;28;20148;-70
2022/03/19 11:17:23;;;;;;;7.87;2.13;;;;;;;;;;5025283;28;20096;-70
2022/03/19 11:19:49;;;;;;;9.97;2.33;;;;;;;;;;5057610;28;20043;-70
2022/03/19 11:22:15;;;;;;;8.00;1.90;;;;;;;;;;5060591;28;20735;-70
2022/03/19 11:24:48;;;;;;;11.50;2.27;;;;;;;;;;5061224;28;20048;-70
2022/03/19 11:27:14;;;;;;;8.57;2.13;;;;;;;;;;5058229;28;20024;-70
2022/03/19 11:29:40;;;;;;;6.53;1.90;;;;;;;;;;5057286;28;20022;-70
2022/03/19 11:32:06;;;;;;;6.67;2.20;;;;;;;;;;5058039;28;20103;-70
2022/03/19 11:34:44;;;;;;;10.63;2.60;;;;;;;;;;5062225;28;20032;-70
2022/03/19 11:37:10;;;;;;;10.87;2.17;;;;;;;;;;5059064;28;20032;-70
2022/03/19 11:39:35;;;;;;;9.63;2.47;;;;;;;;;;5058518;28;20101;-70
2022/03/19 11:42:00;;;;;;;5.37;1.67;;;;;;;;;;5060589;28;20025;-70
2022/03/19 11:44:27;;;;;;;11.20;2.43;;;;;;;;;;5060432;28;20840;-70
2022/03/19 11:47:13;;;;;;;8.80;2.37;;;;;;;;;;5061388;28;20016;-70
2022/03/19 11:49:48;;;;;;;5.30;1.33;;;;;;;;;;5060621;28;20047;-70
2022/03/19 11:52:36;;;;;;;12.30;2.73;;;;;;;;;;5060916;28;20063;-70
2022/03/19 11:55:03;;;;;;;13.97;3.53;;;;;;;;;;5022306;28;20040;-70
2022/03/19 11:57:28;;;;;;;13.53;3.30;;;;;;;;;;5061254;28;20028;-70
2022/03/19 12:00:03;;;;;;;8.97;2.53;;;;;;;;;;5064611;28;20105;-70
2022/03/19 12:02:32;;;;;;;9.40;2.83;;;;;;;;;;5064205;28;20041;-70
2022/03/19 12:04:58;;;;;;;9.17;3.50;;;;;;;;;;5064453;28;20035;-70
2022/03/19 12:07:42;;;;;;;5.90;1.47;;;;;;;;;;5064929;28;20028;-70
2022/03/19 12:10:08;;;;;;;6.40;1.13;;;;;;;;;;5064605;28;20016;-69
2022/03/19 12:12:33;;;;;;;4.63;1.40;;;;;;;;;;5064666;28;20086;-69
2022/03/19 12:14:59;;;;;;;6.77;1.40;;;;;;;;;;5064250;28;20103;-69
2022/03/19 12:17:27;;;;;;;6.80;1.80;;;;;;;;;;5064850;28;20043;-69
2022/03/19 12:19:54;;;;;;;7.83;1.27;;;;;;;;;;5064531;28;20025;-69
2022/03/19 12:22:26;;;;;;;5.80;1.30;;;;;;;;;;5064781;28;20396;-69
2022/03/19 12:24:56;;;;;;;4.30;1.20;;;;;;;;;;5064323;28;20095;-69
2022/03/19 12:27:22;;;;;;;8.43;1.60;;;;;;;;;;5064526;28;20472;-69
2022/03/19 12:29:48;;;;;;;4.63;1.23;;;;;;;;;;5073045;28;20151;-69
2022/03/19 12:32:13;;;;;;;7.73;1.63;;;;;;;;;;5064920;28;20179;-69
2022/03/19 12:34:40;;;;;;;5.93;1.40;;;;;;;;;;5064168;28;20568;-70
2022/03/19 12:37:05;;;;;;;9.23;1.80;;;;;;;;;;5065612;28;20024;-70
2022/03/19 12:39:30;;;;;;;8.43;1.90;;;;;;;;;;5063712;28;20033;-71
2022/03/19 12:41:55;;;;;;;4.60;1.17;;;;;;;;;;5060921;28;20028;-71
2022/03/19 12:44:25;;;;;;;8.15;1.80;;;;;;;;;;5062006;28;20023;-71
2022/03/19 12:47:08;;;;;;;5.65;1.40;;;;;;;;;;5060418;28;20028;-71
2022/03/19 12:49:34;;;;;;;5.88;1.42;;;;;;;;;;5062296;28;20021;-71
2022/03/19 12:52:12;;;;;;;5.72;1.52;;;;;;;;;;5062250;28;20291;-71
2022/03/19 12:54:43;;;;;;;2.95;0.82;;;;;;;;;;5063077;28;20052;-71
2022/03/19 12:57:10;;;;;;;5.28;1.52;;;;;;;;;;5061387;28;20466;-71
2022/03/19 12:59:36;;;;;;;3.58;1.17;;;;;;;;;;5067474;28;20063;-71
2022/03/19 13:02:01;;;;;;;6.78;1.40;;;;;;;;;;5061960;28;20045;-71
2022/03/19 13:04:27;;;;;;;3.22;0.73;;;;;;;;;;5062405;28;20635;-71
2022/03/19 13:06:53;;;;;;;6.05;1.20;;;;;;;;;;5062950;28;20623;-71
2022/03/19 13:09:48;;;;;;;4.22;1.20;;;;;;;;;;5061268;28;20074;-71
2022/03/19 13:12:20;;;;;;;3.67;1.20;;;;;;;;;;4979721;28;20030;-71
2022/03/19 13:14:50;;;;;;;2.58;0.90;;;;;;;;;;4979672;28;20030;-71
2022/03/19 13:17:15;;;;;;;4.68;1.30;;;;;;;;;;4975002;28;20121;-71
2022/03/19 13:19:40;;;;;;;4.85;1.00;;;;;;;;;;4976628;28;20113;-71
2022/03/19 13:22:08;;;;;;;4.93;1.58;;;;;;;;;;4982218;28;20042;-71
2022/03/19 13:24:35;;;;;;;7.97;1.50;;;;;;;;;;4981066;28;20153;-71
2022/03/19 13:27:01;;;;;;;3.63;1.00;;;;;;;;;;4975709;28;20125;-71
2022/03/19 13:29:29;;;;;;;2.88;1.10;;;;;;;;;;4979933;28;20113;-71
2022/03/19 13:31:56;;;;;;;4.53;1.30;;;;;;;;;;4979576;28;20069;-72
2022/03/19 13:34:32;;;;;;;3.38;1.05;;;;;;;;;;4978650;28;20024;-71
2022/03/19 13:37:05;;;;;;;4.63;1.50;;;;;;;;;;4975824;28;20657;-71
2022/03/19 13:39:44;;;;;;;5.05;1.27;;;;;;;;;;4984714;28;20149;-71
2022/03/19 13:42:13;;;;;;;5.30;1.58;;;;;;;;;;4972785;28;20038;-71
2022/03/19 13:44:43;;;;;;;5.32;1.25;;;;;;;;;;4971026;28;20551;-71
2022/03/19 13:47:11;;;;;;;6.03;1.33;;;;;;;;;;4972804;28;20048;-71
2022/03/19 13:49:37;;;;;;;4.72;1.35;;;;;;;;;;5049162;28;20052;-71
2022/03/19 13:52:03;;;;;;;6.53;1.93;;;;;;;;;;5061032;28;20024;-70
2022/03/19 13:54:44;;;;;;;9.37;2.53;;;;;;;;;;5062126;28;20222;-70
2022/03/19 13:57:15;;;;;;;5.72;1.52;;;;;;;;;;5065457;28;20017;-72
2022/03/19 13:59:43;;;;;;;6.97;2.10;;;;;;;;;;5069837;28;20032;-71
2022/03/19 14:02:08;;;;;;;7.70;2.03;;;;;;;;;;5060830;28;20044;-71
2022/03/19 14:04:34;;;;;;;4.07;1.20;;;;;;;;;;5061695;28;20111;-70
2022/03/19 14:07:02;;;;;;;5.97;1.23;;;;;;;;;;5073988;28;20043;-71
2022/03/19 14:09:27;;;;;;;5.60;2.10;;;;;;;;;;5062026;28;20511;-71
2022/03/19 14:11:53;;;;;;;5.97;2.47;;;;;;;;;;5062062;28;20036;-71
2022/03/19 14:14:18;;;;;;;4.07;1.60;;;;;;;;;;5062388;28;20028;-71
2022/03/19 14:16:53;;;;;;;3.60;1.10;;;;;;;;;;5062046;28;20034;-71
2022/03/19 14:19:19;;;;;;;4.40;1.17;;;;;;;;;;5059933;28;20025;-71
2022/03/19 14:21:44;;;;;;;3.37;1.13;;;;;;;;;;5061774;28;20032;-71
2022/03/19 14:24:09;;;;;;;6.20;1.10;;;;;;;;;;5070062;28;20638;-71
2022/03/19 14:26:34;;;;;;;2.17;0.70;;;;;;;;;;5062602;28;20558;-71
2022/03/19 14:29:00;;;;;;;5.83;1.23;;;;;;;;;;5062616;28;20084;-72
2022/03/19 14:31:25;;;;;;;3.03;1.00;;;;;;;;;;5082562;28;20099;-71
2022/03/19 14:33:50;;;;;;;2.43;1.13;;;;;;;;;;5071274;28;20036;-72
2022/03/19 14:36:15;;;;;;;3.97;1.07;;;;;;;;;;5062084;28;20029;-71
2022/03/19 14:38:42;;;;;;;1.97;1.10;;;;;;;;;;5062098;28;20024;-71
2022/03/19 14:41:09;;;;;;;4.10;1.50;;;;;;;;;;5061782;28;20109;-71
2022/03/19 14:43:34;;;;;;;4.27;1.37;;;;;;;;;;5061923;28;20089;-71
2022/03/19 14:46:01;;;;;;;4.93;1.57;;;;;;;;;;5065588;28;20103;-71
2022/03/19 14:48:27;;;;;;;5.40;1.57;;;;;;;;;;5043082;28;20028;-71
2022/03/19 14:50:53;;;;;;;2.87;1.10;;;;;;;;;;5061848;28;20021;-72